Time;durP1;ratioP1;P1;durP2;ratioP2;P2;SDS_P1;SDS_P2;PMS_P1;PMS_P2;Temp;Humidity;BMP_temperature;BMP_pressure;BME280_temperature;BME280_humidity;BME280_pressure;Samples;Min_cycle;Max_cycle;Signal;HPM_P1;HPM_P2
2023/04/12 05:22:02;;;;;;;13.38;1.98;;;13.60;68.10;;;;;;5616527;23;20052;-78
2023/04/12 05:24:30;;;;;;;13.90;2.17;;;13.80;68.70;;;;;;4901449;29;20068;-82
2023/04/12 05:26:56;;;;;;;19.80;2.30;;;13.90;68.50;;;;;;4901787;29;20363;-80
2023/04/12 05:29:21;;;;;;;13.77;3.10;;;14.00;68.60;;;;;;4900561;29;20044;-80
2023/04/12 05:31:47;;;;;;;15.75;2.70;;;14.10;68.70;;;;;;4885162;29;20036;-79
2023/04/12 05:34:13;;;;;;;16.38;2.70;;;14.20;68.90;;;;;;4900376;29;20041;-78
2023/04/12 05:36:39;;;;;;;26.05;3.42;;;14.30;69.20;;;;;;4901384;29;20045;-78
2023/04/12 05:39:35;;;;;;;23.33;3.13;;;14.30;69.30;;;;;;4900461;29;20504;-79
2023/04/12 05:42:10;;;;;;;21.98;3.40;;;14.50;69.60;;;;;;4884738;29;20040;-81
2023/04/12 05:44:48;;;;;;;14.43;2.83;;;14.50;69.80;;;;;;4901466;29;20040;-84
2023/04/12 05:47:55;;;;;;;13.73;3.20;;;14.70;69.40;;;;;;4901207;29;20085;-82
2023/04/12 05:50:24;;;;;;;24.15;3.03;;;14.80;69.40;;;;;;4899571;29;20068;-81
2023/04/12 05:53:06;;;;;;;;;;;14.90;69.40;;;;;;4886710;29;20452;-83
2023/04/12 05:55:32;;;;;;;18.83;3.38;;;15.00;69.70;;;;;;4900200;29;19930;-81
2023/04/12 05:57:57;;;;;;;24.63;3.40;;;15.10;69.10;;;;;;4885061;29;20044;-82
2023/04/12 06:00:23;;;;;;;21.10;3.15;;;15.10;69.00;;;;;;4901249;29;20047;-79
2023/04/12 06:02:50;;;;;;;20.42;3.22;;;15.20;68.80;;;;;;4901240;29;20495;-81
2023/04/12 06:05:16;;;;;;;22.83;3.35;;;15.10;68.70;;;;;;4884249;29;20349;-79
2023/04/12 06:07:46;;;;;;;14.80;2.47;;;15.20;68.80;;;;;;4884486;29;20128;-80
2023/04/12 06:10:15;;;;;;;35.78;4.22;;;15.20;68.80;;;;;;4900822;29;20120;-80
2023/04/12 06:12:40;;;;;;;35.55;5.35;;;15.30;68.90;;;;;;4899785;29;20120;-79
2023/04/12 06:15:06;;;;;;;37.20;5.13;;;15.30;68.80;;;;;;4900145;29;20060;-77
2023/04/12 06:17:34;;;;;;;31.17;4.47;;;15.30;68.80;;;;;;4900857;29;20048;-75
2023/04/12 06:20:09;;;;;;;26.88;4.68;;;15.40;68.80;;;;;;4901548;29;20048;-79
2023/04/12 06:22:36;;;;;;;41.72;4.70;;;15.40;68.70;;;;;;4903842;29;20067;-75
2023/04/12 06:25:02;;;;;;;23.90;3.75;;;15.50;68.40;;;;;;4919580;29;20048;-76
2023/04/12 06:27:28;;;;;;;28.38;4.47;;;15.50;68.10;;;;;;4919746;29;20106;-79
2023/04/12 06:29:54;;;;;;;27.98;3.33;;;15.60;68.00;;;;;;4919602;29;20140;-79
2023/04/12 06:32:20;;;;;;;23.80;3.83;;;15.60;67.80;;;;;;4919747;29;20127;-75
2023/04/12 06:34:46;;;;;;;25.02;3.08;;;15.70;67.60;;;;;;4902944;29;20082;-80
2023/04/12 06:37:12;;;;;;;20.88;3.70;;;15.80;67.50;;;;;;4919073;29;20055;-77
2023/04/12 06:39:37;;;;;;;17.92;2.92;;;15.80;67.30;;;;;;4921828;29;20048;-77
2023/04/12 06:42:03;;;;;;;24.17;3.30;;;15.90;67.10;;;;;;4919320;29;20482;-79
2023/04/12 06:44:29;;;;;;;23.05;2.90;;;15.90;66.90;;;;;;4920241;29;20123;-77
2023/04/12 06:46:54;;;;;;;20.15;3.08;;;16.00;66.70;;;;;;4938418;29;20481;-76
2023/04/12 06:49:20;;;;;;;9.75;1.52;;;16.10;66.40;;;;;;4938481;29;20138;-73
2023/04/12 06:51:46;;;;;;;16.58;3.13;;;15.90;63.70;;;;;;4938140;29;20059;-76
2023/04/12 06:54:12;;;;;;;14.85;2.13;;;16.00;65.80;;;;;;4931534;29;20154;-73
2023/04/12 06:56:38;;;;;;;15.52;2.33;;;15.90;65.80;;;;;;4919336;29;20059;-73
2023/04/12 06:59:04;;;;;;;15.70;2.13;;;16.00;65.80;;;;;;4928426;29;20051;-74
2023/04/12 07:01:30;;;;;;;8.95;2.05;;;16.00;65.70;;;;;;4938407;29;20051;-76
2023/04/12 07:03:56;;;;;;;9.90;1.73;;;16.00;65.30;;;;;;4938890;29;20434;-75
2023/04/12 07:06:22;;;;;;;11.10;1.45;;;16.10;64.70;;;;;;4938598;29;20058;-77
2023/04/12 07:08:48;;;;;;;11.85;2.03;;;16.10;64.30;;;;;;4913420;29;20075;-77
2023/04/12 07:11:21;;;;;;;16.58;2.50;;;16.10;64.30;;;;;;4912430;29;20048;-79
2023/04/12 07:13:52;;;;;;;11.30;1.73;;;16.20;64.50;;;;;;4911874;29;20040;-78
2023/04/12 07:16:18;;;;;;;8.95;1.55;;;16.20;64.50;;;;;;4919072;29;20454;-78
2023/04/12 07:18:43;;;;;;;3.60;0.82;;;16.30;64.50;;;;;;4918588;29;20451;-76
2023/04/12 07:21:13;;;;;;;11.27;1.58;;;16.30;64.40;;;;;;4913580;29;20458;-77
2023/04/12 07:23:39;;;;;;;18.15;1.55;;;16.40;64.30;;;;;;4916440;29;20090;-80
2023/04/12 07:26:05;;;;;;;7.15;1.20;;;16.30;64.30;;;;;;4917324;29;20139;-77
2023/04/12 07:28:31;;;;;;;6.93;1.45;;;16.40;64.40;;;;;;4897055;29;20379;-78
2023/04/12 07:30:57;;;;;;;9.75;1.48;;;16.40;64.50;;;;;;4918189;29;20052;-77
2023/04/12 07:33:25;;;;;;;8.45;1.15;;;16.40;64.60;;;;;;4919275;29;20059;-76
2023/04/12 07:35:50;;;;;;;6.57;1.20;;;16.40;64.70;;;;;;4917847;29;20447;-76
2023/04/12 07:38:16;;;;;;;9.95;1.27;;;16.40;64.80;;;;;;4917284;29;20048;-77
2023/04/12 07:40:42;;;;;;;11.45;1.40;;;16.40;64.90;;;;;;4919049;29;20048;-81
2023/04/12 07:43:08;;;;;;;16.13;2.22;;;16.40;65.00;;;;;;4917886;29;20474;-80
2023/04/12 07:45:37;;;;;;;20.23;2.15;;;16.40;65.20;;;;;;4918618;29;20088;-82
2023/04/12 07:48:04;;;;;;;18.60;2.15;;;16.40;65.60;;;;;;4896616;29;20056;-78
2023/04/12 07:50:30;;;;;;;19.25;3.05;;;16.40;66.10;;;;;;4912967;29;20032;-79
2023/04/12 07:53:16;;;;;;;19.58;2.35;;;16.40;66.40;;;;;;4929049;29;20051;-79
2023/04/12 07:55:42;;;;;;;26.08;2.63;;;16.30;66.50;;;;;;4923628;29;20044;-81
2023/04/12 07:58:08;;;;;;;16.08;1.85;;;16.30;66.60;;;;;;4916929;29;20419;-79
2023/04/12 08:00:34;;;;;;;14.07;1.95;;;16.30;66.80;;;;;;4917301;29;20043;-72
2023/04/12 08:03:00;;;;;;;18.10;2.72;;;16.30;66.90;;;;;;4918191;29;20063;-74
2023/04/12 08:05:25;;;;;;;13.13;2.08;;;16.30;66.90;;;;;;4923570;29;20139;-78
2023/04/12 08:07:51;;;;;;;14.80;2.10;;;16.30;67.00;;;;;;4919321;29;20044;-79
2023/04/12 08:10:17;;;;;;;12.32;1.40;;;16.30;67.10;;;;;;4914821;29;20357;-80
2023/04/12 08:12:42;;;;;;;13.63;1.33;;;16.30;67.20;;;;;;4916220;29;20467;-81
2023/04/12 08:15:08;;;;;;;7.20;0.85;;;16.30;67.20;;;;;;4910811;29;20087;-77
2023/04/12 08:17:34;;;;;;;11.32;1.73;;;16.30;67.20;;;;;;4906598;29;20103;-74
2023/04/12 08:20:00;;;;;;;10.52;1.77;;;16.20;66.20;;;;;;4916409;29;20434;-81
2023/04/12 08:22:27;;;;;;;11.30;1.35;;;16.20;67.60;;;;;;4915650;29;20136;-78
2023/04/12 08:24:52;;;;;;;10.32;1.25;;;16.20;67.10;;;;;;4918193;29;20048;-79
2023/04/12 08:27:18;;;;;;;11.50;1.60;;;16.20;67.20;;;;;;4913310;29;20451;-79
2023/04/12 08:29:45;;;;;;;12.25;0.93;;;16.20;67.30;;;;;;4914343;29;20048;-81
2023/04/12 08:32:12;;;;;;;6.68;1.45;;;16.20;67.30;;;;;;4917160;29;20091;-81
2023/04/12 08:34:40;;;;;;;9.68;1.10;;;16.20;67.30;;;;;;4921697;29;20067;-79
2023/04/12 08:37:06;;;;;;;8.70;0.85;;;16.20;67.30;;;;;;4908733;29;20124;-78
2023/04/12 08:39:32;;;;;;;7.53;0.80;;;16.20;67.20;;;;;;4922892;29;20048;-83
2023/04/12 08:42:03;;;;;;;3.97;0.88;;;16.30;67.30;;;;;;4929022;29;20076;-80
2023/04/12 08:44:41;;;;;;;6.38;1.10;;;16.30;67.30;;;;;;4929160;29;20127;-81
2023/04/12 08:47:11;;;;;;;6.10;0.80;;;16.20;67.50;;;;;;4913923;29;20082;-81
2023/04/12 08:49:38;;;;;;;6.95;0.98;;;16.20;67.70;;;;;;4914349;29;20043;-80
2023/04/12 08:52:08;;;;;;;5.10;1.05;;;16.20;67.70;;;;;;4928089;29;20064;-81
2023/04/12 08:54:36;;;;;;;8.65;1.15;;;16.20;67.80;;;;;;4930075;29;20040;-84
2023/04/12 08:57:08;;;;;;;8.52;1.15;;;16.20;67.70;;;;;;4923500;29;20360;-83
2023/04/12 08:59:42;;;;;;;7.55;0.90;;;16.20;67.90;;;;;;4922658;29;20048;-84
2023/04/12 09:02:13;;;;;;;9.15;1.20;;;16.20;68.00;;;;;;4911165;29;20051;-83
2023/04/12 09:04:52;;;;;;;8.23;1.10;;;16.20;68.00;;;;;;4923577;29;20055;-82
2023/04/12 09:07:22;;;;;;;7.95;1.05;;;16.20;68.30;;;;;;4923829;29;20053;-82
2023/04/12 09:09:50;;;;;;;11.32;1.45;;;16.10;68.20;;;;;;4925252;29;20044;-84
2023/04/12 09:12:19;;;;;;;17.63;2.00;;;16.20;68.20;;;;;;4921214;29;20426;-81
2023/04/12 09:14:45;;;;;;;13.98;1.70;;;16.20;68.20;;;;;;4927092;29;20036;-83
2023/04/12 09:17:22;;;;;;;8.35;1.13;;;16.10;68.20;;;;;;4930399;29;20039;-84
2023/04/12 09:19:49;;;;;;;6.93;0.90;;;16.20;68.20;;;;;;4913466;29;20044;-78
2023/04/12 09:22:18;;;;;;;6.93;1.20;;;16.10;68.10;;;;;;4921661;29;20059;-80
2023/04/12 09:24:51;;;;;;;8.77;1.00;;;16.20;68.20;;;;;;4941237;28;20452;-80
2023/04/12 09:27:21;;;;;;;10.07;1.33;;;16.10;68.20;;;;;;4945763;28;20127;-82
2023/04/12 09:29:51;;;;;;;10.32;1.23;;;16.10;68.30;;;;;;4911910;29;20544;-81
2023/04/12 09:32:26;;;;;;;7.38;1.10;;;16.10;68.30;;;;;;4930129;29;20058;-78
2023/04/12 09:34:57;;;;;;;7.18;0.73;;;16.10;68.20;;;;;;4929272;29;20044;-81
2023/04/12 09:37:23;;;;;;;8.10;0.95;;;16.10;68.00;;;;;;4947756;29;20094;-81
2023/04/12 09:40:22;;;;;;;6.57;1.42;;;16.10;67.90;;;;;;4937554;29;20062;-76
2023/04/12 09:42:52;;;;;;;8.13;1.15;;;16.10;67.70;;;;;;4922612;29;20066;-77
2023/04/12 09:45:24;;;;;;;9.48;1.20;;;16.10;67.60;;;;;;4939253;29;20043;-77
2023/04/12 09:47:50;;;;;;;9.30;1.23;;;16.10;67.50;;;;;;4938728;29;20372;-80
2023/04/12 09:50:25;;;;;;;9.40;0.98;;;16.10;67.70;;;;;;4932395;29;20119;-81
2023/04/12 09:52:53;;;;;;;11.63;1.15;;;16.10;67.80;;;;;;4921801;29;20051;-80
2023/04/12 09:55:21;;;;;;;9.60;1.92;;;16.10;67.80;;;;;;4938724;29;20135;-80
2023/04/12 09:57:50;;;;;;;10.60;1.42;;;16.10;68.30;;;;;;4922258;29;20051;-80
2023/04/12 10:00:16;;;;;;;12.52;1.83;;;16.10;68.00;;;;;;4921881;29;20499;-79
2023/04/12 10:02:46;;;;;;;9.73;1.48;;;16.10;68.00;;;;;;4918489;29;20142;-77
2023/04/12 10:05:15;;;;;;;10.23;1.55;;;16.20;68.30;;;;;;4917501;29;20040;-79
2023/04/12 10:07:42;;;;;;;14.00;1.30;;;16.20;68.20;;;;;;4936674;29;20048;-78
2023/04/12 10:10:11;;;;;;;15.27;2.17;;;16.20;68.00;;;;;;4938790;29;20047;-77
2023/04/12 10:12:41;;;;;;;19.48;2.40;;;16.20;68.10;;;;;;4939083;29;20138;-79
2023/04/12 10:15:19;;;;;;;18.17;2.35;;;16.20;68.10;;;;;;4939280;29;20056;-79
2023/04/12 10:17:48;;;;;;;16.83;2.53;;;16.20;68.10;;;;;;4921957;29;20101;-78
2023/04/12 10:20:15;;;;;;;17.00;2.10;;;16.20;68.10;;;;;;4939125;29;20056;-77
2023/04/12 10:22:42;;;;;;;12.43;2.08;;;16.20;68.00;;;;;;4938603;29;20083;-78
2023/04/12 10:25:14;;;;;;;15.32;3.20;;;16.20;68.00;;;;;;4938729;29;20071;-80
2023/04/12 10:27:41;;;;;;;7.00;1.58;;;16.20;68.00;;;;;;4938305;29;20066;-80
2023/04/12 10:30:29;;;;;;;15.45;1.88;;;16.20;68.00;;;;;;4938819;29;20131;-79
2023/04/12 10:33:01;;;;;;;11.52;1.80;;;16.10;67.90;;;;;;4938844;29;20113;-79
2023/04/12 10:35:27;;;;;;;21.08;2.35;;;16.20;67.80;;;;;;4938525;29;20074;-76
2023/04/12 10:38:01;;;;;;;20.15;2.40;;;16.20;67.90;;;;;;4921238;29;20043;-83
2023/04/12 10:40:30;;;;;;;27.70;3.28;;;16.10;67.90;;;;;;4919957;29;20051;-75
2023/04/12 10:43:28;;;;;;;31.33;3.90;;;16.20;67.80;;;;;;4937861;29;20050;-78
2023/04/12 10:45:54;;;;;;;29.00;3.13;;;16.20;67.60;;;;;;4897745;29;20060;-78
2023/04/12 10:48:36;;;;;;;19.90;2.90;;;16.10;67.70;;;;;;4938021;29;20477;-80
2023/04/12 10:51:24;;;;;;;28.10;3.05;;;16.20;67.80;;;;;;4938606;29;20047;-80
2023/04/12 10:53:53;;;;;;;22.27;2.38;;;16.20;67.90;;;;;;4938901;29;20075;-79
2023/04/12 10:56:31;;;;;;;22.27;3.15;;;16.10;68.00;;;;;;4929993;29;20142;-84
2023/04/12 10:59:00;;;;;;;20.90;2.70;;;16.20;68.40;;;;;;4920765;29;20582;-78
2023/04/12 11:01:27;;;;;;;25.75;3.13;;;16.10;68.40;;;;;;4921139;29;20055;-82
2023/04/12 11:04:23;;;;;;;25.88;3.55;;;16.10;68.50;;;;;;4905043;29;20048;-85
2023/04/12 11:06:52;;;;;;;17.40;2.33;;;16.10;68.40;;;;;;4921217;29;20047;-77
2023/04/12 11:09:33;;;;;;;16.63;2.72;;;16.20;68.10;;;;;;4937649;29;20031;-80
2023/04/12 11:12:05;;;;;;;16.65;2.30;;;16.20;67.60;;;;;;4921711;29;20043;-80
2023/04/12 11:14:48;;;;;;;13.70;2.35;;;16.20;67.20;;;;;;4924151;29;20066;-81
2023/04/12 11:17:17;;;;;;;15.30;2.57;;;16.10;66.70;;;;;;4939933;29;20054;-79
2023/04/12 11:19:44;;;;;;;10.95;1.85;;;16.10;66.40;;;;;;4924492;29;20907;-79
2023/04/12 11:22:12;;;;;;;13.35;2.72;;;16.10;66.00;;;;;;4937803;29;20047;-80
2023/04/12 11:24:39;;;;;;;15.50;2.58;;;16.10;65.90;;;;;;4921095;29;20051;-80
2023/04/12 11:27:05;;;;;;;11.77;1.95;;;16.10;65.90;;;;;;4921007;29;20048;-81
2023/04/12 11:29:31;;;;;;;12.77;1.63;;;16.00;65.90;;;;;;4920490;29;20043;-81
2023/04/12 11:31:57;;;;;;;7.78;1.50;;;16.00;65.70;;;;;;4921893;29;20117;-79
2023/04/12 11:34:24;;;;;;;7.97;1.60;;;16.00;65.80;;;;;;4937675;29;20051;-80
2023/04/12 11:36:54;;;;;;;9.40;1.88;;;16.00;65.90;;;;;;4905357;29;20079;-80
2023/04/12 11:39:20;;;;;;;5.75;1.17;;;16.00;65.80;;;;;;4917691;29;20491;-82
2023/04/12 11:41:49;;;;;;;4.55;1.30;;;16.00;65.90;;;;;;4901747;29;20048;-81
2023/04/12 11:44:20;;;;;;;7.50;1.45;;;16.00;66.00;;;;;;4935189;29;20195;-81
2023/04/12 11:46:47;;;;;;;6.28;1.27;;;16.00;66.60;;;;;;4921544;29;20048;-81
2023/04/12 11:49:17;;;;;;;7.22;1.20;;;16.00;66.00;;;;;;4905521;29;20052;-81
2023/04/12 11:51:44;;;;;;;6.20;1.20;;;16.00;65.90;;;;;;4920972;29;20348;-79
2023/04/12 11:54:11;;;;;;;6.55;0.93;;;16.00;65.90;;;;;;4937207;29;20075;-79
2023/04/12 11:56:37;;;;;;;4.15;1.05;;;16.00;65.90;;;;;;4921204;29;20059;-80
2023/04/12 11:59:03;;;;;;;6.70;1.15;;;15.90;65.70;;;;;;4920797;29;20047;-81
2023/04/12 12:01:31;;;;;;;5.57;1.17;;;16.00;65.90;;;;;;4920869;29;20067;-80
2023/04/12 12:03:58;;;;;;;4.28;1.05;;;15.90;65.90;;;;;;4937195;29;20055;-82
2023/04/12 12:06:24;;;;;;;6.25;0.85;;;15.90;65.90;;;;;;4921200;29;20063;-80
2023/04/12 12:08:51;;;;;;;3.88;0.77;;;15.90;65.70;;;;;;4921429;29;20459;-82
2023/04/12 12:11:21;;;;;;;5.60;0.90;;;15.90;65.70;;;;;;4920458;29;20059;-81
2023/04/12 12:13:49;;;;;;;5.93;1.10;;;15.90;65.80;;;;;;4937042;29;20047;-81
2023/04/12 12:16:16;;;;;;;4.00;0.70;;;15.90;65.80;;;;;;4921495;29;20139;-82
2023/04/12 12:18:42;;;;;;;4.05;0.95;;;15.90;65.70;;;;;;4924681;29;20054;-78
2023/04/12 12:21:10;;;;;;;4.20;0.80;;;15.90;65.70;;;;;;4924553;29;20050;-81
2023/04/12 12:23:36;;;;;;;4.03;0.70;;;15.90;65.60;;;;;;4940462;29;20070;-80
2023/04/12 12:26:04;;;;;;;3.10;1.13;;;15.90;65.40;;;;;;4923769;29;20047;-80
2023/04/12 12:28:30;;;;;;;5.40;1.33;;;15.90;65.20;;;;;;4908435;29;20083;-80
2023/04/12 12:30:58;;;;;;;6.18;1.40;;;15.90;64.70;;;;;;4908653;29;20035;-82
2023/04/12 12:33:35;;;;;;;6.63;1.25;;;15.70;63.30;;;;;;4920923;29;20047;-82
2023/04/12 12:36:01;;;;;;;9.20;1.13;;;15.70;62.80;;;;;;4905153;29;20048;-79
2023/04/12 12:38:37;;;;;;;10.55;1.77;;;15.70;61.40;;;;;;4904649;29;20115;-76
2023/04/12 12:41:20;;;;;;;7.70;1.77;;;15.60;61.60;;;;;;4921629;29;20124;-77
2023/04/12 12:43:51;;;;;;;4.90;1.67;;;15.60;58.50;;;;;;4930127;29;20382;-75
2023/04/12 12:46:18;;;;;;;9.20;1.58;;;15.50;60.00;;;;;;4940820;29;20047;-76
2023/04/12 12:48:45;;;;;;;9.57;2.22;;;15.50;60.60;;;;;;4941135;29;20055;-72
2023/04/12 12:51:13;;;;;;;6.15;2.22;;;15.50;61.00;;;;;;4940194;29;20102;-74
2023/04/12 12:53:39;;;;;;;9.93;1.83;;;15.50;61.00;;;;;;4940456;29;20058;-75
2023/04/12 12:56:10;;;;;;;16.75;3.42;;;15.50;61.20;;;;;;4940563;29;20047;-81
2023/04/12 12:58:35;;;;;;;15.73;2.92;;;15.50;62.80;;;;;;4940411;29;20114;-78
2023/04/12 13:01:03;;;;;;;19.15;3.83;;;15.60;63.70;;;;;;4923493;29;20044;-77
2023/04/12 13:03:29;;;;;;;27.45;4.00;;;15.60;65.00;;;;;;4935371;29;20522;-77
2023/04/12 13:05:55;;;;;;;11.50;2.47;;;15.60;65.50;;;;;;4936561;29;20048;-80
2023/04/12 13:08:21;;;;;;;18.50;3.60;;;15.60;65.80;;;;;;4923446;29;20047;-81
2023/04/12 13:10:47;;;;;;;26.63;4.63;;;15.60;66.80;;;;;;4922851;29;20048;-76
2023/04/12 13:13:12;;;;;;;15.25;3.28;;;15.70;66.90;;;;;;4939530;29;20054;-75
2023/04/12 13:15:38;;;;;;;20.60;2.65;;;15.60;66.80;;;;;;4939515;29;20063;-77
2023/04/12 13:18:04;;;;;;;23.73;3.58;;;15.60;67.60;;;;;;4939137;29;20367;-77
2023/04/12 13:20:30;;;;;;;32.67;4.07;;;15.60;68.00;;;;;;4939979;29;20066;-76
2023/04/12 13:22:56;;;;;;;25.75;4.13;;;15.70;68.00;;;;;;4939563;29;20434;-77
2023/04/12 13:25:22;;;;;;;27.58;4.07;;;15.60;67.80;;;;;;4922720;29;20139;-78
2023/04/12 13:27:49;;;;;;;34.70;4.90;;;15.70;68.00;;;;;;4938962;29;20064;-76
2023/04/12 13:30:15;;;;;;;30.80;3.97;;;15.70;68.20;;;;;;4940604;29;20367;-77
2023/04/12 13:32:40;;;;;;;31.92;4.82;;;15.70;68.20;;;;;;4939281;29;20549;-77
2023/04/12 13:35:06;;;;;;;25.05;3.58;;;15.70;68.20;;;;;;4939232;29;20055;-77
2023/04/12 13:37:33;;;;;;;22.33;4.05;;;15.70;68.20;;;;;;4923272;29;20043;-77
2023/04/12 13:39:58;;;;;;;21.00;3.72;;;15.70;68.20;;;;;;4939566;29;20047;-77
2023/04/12 13:42:24;;;;;;;24.45;4.00;;;15.80;68.10;;;;;;4939741;29;20058;-76
2023/04/12 13:44:50;;;;;;;14.70;2.72;;;15.80;68.20;;;;;;4939442;29;20047;-77
2023/04/12 13:47:18;;;;;;;24.77;2.95;;;15.80;68.10;;;;;;4939226;29;20448;-78
2023/04/12 13:49:44;;;;;;;20.02;3.20;;;15.80;68.00;;;;;;4939451;29;20048;-77
2023/04/12 13:52:10;;;;;;;23.35;3.58;;;15.80;67.90;;;;;;4939375;29;20051;-78
2023/04/12 13:54:36;;;;;;;14.93;2.65;;;15.80;67.90;;;;;;4939088;29;20048;-77
2023/04/12 13:57:03;;;;;;;13.15;2.85;;;15.80;67.70;;;;;;4939547;29;20059;-78
2023/04/12 13:59:29;;;;;;;14.68;2.65;;;15.80;67.50;;;;;;4939490;29;20172;-77
2023/04/12 14:01:55;;;;;;;11.90;2.95;;;15.80;67.20;;;;;;4923188;29;20374;-77
2023/04/12 14:04:21;;;;;;;13.07;2.42;;;15.80;67.20;;;;;;4922057;29;20367;-77
2023/04/12 14:06:47;;;;;;;14.05;1.95;;;15.80;67.10;;;;;;4938996;29;20114;-76
2023/04/12 14:09:24;;;;;;;16.58;2.78;;;15.80;67.20;;;;;;4939254;29;20051;-77
2023/04/12 14:11:51;;;;;;;10.00;1.50;;;15.90;66.70;;;;;;4938968;29;20090;-79
2023/04/12 14:14:17;;;;;;;10.30;2.28;;;15.80;62.80;;;;;;4938097;29;20076;-81
2023/04/12 14:16:43;;;;;;;16.15;2.85;;;15.80;60.90;;;;;;4938741;29;20051;-79
2023/04/12 14:19:09;;;;;;;15.20;2.63;;;15.70;59.60;;;;;;4922401;29;20051;-80
2023/04/12 14:21:36;;;;;;;8.00;2.22;;;15.60;60.10;;;;;;4922034;29;20059;-78
2023/04/12 14:24:02;;;;;;;6.55;1.65;;;15.60;61.30;;;;;;4920930;29;20135;-78
2023/04/12 14:26:28;;;;;;;11.23;1.90;;;15.60;61.80;;;;;;4938779;29;20157;-78
2023/04/12 14:28:54;;;;;;;10.10;1.95;;;15.60;61.70;;;;;;4938477;29;20523;-78
2023/04/12 14:31:20;;;;;;;9.38;1.98;;;15.70;62.00;;;;;;4938655;29;20051;-79
2023/04/12 14:33:46;;;;;;;11.77;2.00;;;15.80;62.30;;;;;;4938627;29;20052;-77
2023/04/12 14:36:11;;;;;;;9.80;2.30;;;15.90;62.50;;;;;;4937784;29;20052;-78
2023/04/12 14:38:37;;;;;;;9.25;2.00;;;16.10;62.70;;;;;;4921535;29;20048;-79
2023/04/12 14:41:07;;;;;;;11.57;1.65;;;16.10;62.90;;;;;;4905675;29;20135;-78
2023/04/12 14:43:33;;;;;;;11.55;1.63;;;16.20;63.20;;;;;;4929519;29;20785;-78
2023/04/12 14:45:58;;;;;;;6.88;1.48;;;16.30;63.30;;;;;;4933280;29;20514;-79
2023/04/12 14:48:24;;;;;;;8.23;1.13;;;16.30;63.40;;;;;;4923077;29;20051;-77
2023/04/12 14:50:50;;;;;;;7.80;1.80;;;16.40;63.60;;;;;;4938082;29;20090;-77
2023/04/12 14:53:17;;;;;;;8.15;1.15;;;16.40;63.60;;;;;;4932168;29;20055;-76
2023/04/12 14:55:45;;;;;;;8.82;1.60;;;16.40;63.70;;;;;;4921018;29;20044;-78
2023/04/12 14:58:12;;;;;;;11.50;1.90;;;16.40;63.80;;;;;;4931707;29;20481;-78
2023/04/12 15:00:38;;;;;;;10.20;1.95;;;16.40;63.90;;;;;;4918380;29;20543;-76
2023/04/12 15:03:05;;;;;;;13.35;1.83;;;16.40;64.00;;;;;;4930363;29;20088;-77
2023/04/12 15:05:32;;;;;;;14.20;1.90;;;16.50;64.30;;;;;;4905404;29;20051;-77
2023/04/12 15:07:57;;;;;;;12.88;1.77;;;16.40;64.30;;;;;;4936857;29;20063;-78
2023/04/12 15:10:23;;;;;;;9.13;1.55;;;16.50;64.40;;;;;;4922137;29;20052;-77
2023/04/12 15:12:49;;;;;;;13.55;1.55;;;16.40;64.50;;;;;;4938253;29;20080;-77
2023/04/12 15:15:15;;;;;;;12.18;1.85;;;16.40;64.60;;;;;;4921527;29;20051;-77
2023/04/12 15:17:41;;;;;;;10.52;1.48;;;16.50;64.80;;;;;;4938126;29;20130;-78
2023/04/12 15:20:08;;;;;;;13.43;1.50;;;16.50;64.90;;;;;;4938600;29;20395;-77
2023/04/12 15:22:37;;;;;;;10.93;1.20;;;16.50;65.10;;;;;;4918271;29;20140;-79
2023/04/12 15:25:03;;;;;;;10.65;1.98;;;16.50;65.10;;;;;;4917099;29;20103;-79
2023/04/12 15:27:30;;;;;;;9.63;2.10;;;16.50;65.10;;;;;;4918628;29;20048;-79
2023/04/12 15:29:59;;;;;;;9.10;1.90;;;16.50;65.10;;;;;;4919339;29;20119;-77
2023/04/12 15:32:28;;;;;;;15.38;2.08;;;16.40;65.10;;;;;;4919032;29;20044;-77
2023/04/12 15:34:58;;;;;;;13.40;2.50;;;16.40;65.20;;;;;;4918410;29;20040;-81
2023/04/12 15:37:24;;;;;;;14.23;2.72;;;16.40;65.40;;;;;;4912679;29;20434;-77
2023/04/12 15:39:50;;;;;;;19.60;3.42;;;16.40;65.60;;;;;;4918528;29;20048;-76
2023/04/12 15:42:16;;;;;;;17.65;2.78;;;16.40;65.80;;;;;;4919053;29;20056;-76
2023/04/12 15:44:44;;;;;;;21.75;2.92;;;16.40;66.10;;;;;;4918921;29;20333;-76
2023/04/12 15:47:10;;;;;;;23.77;3.40;;;16.40;66.40;;;;;;4918008;29;20151;-75
2023/04/12 15:49:36;;;;;;;21.85;3.40;;;16.40;66.60;;;;;;4918040;29;20063;-75
2023/04/12 15:52:02;;;;;;;27.90;3.35;;;16.50;66.80;;;;;;4921359;29;20455;-75
2023/04/12 15:54:28;;;;;;;22.35;3.65;;;16.50;66.90;;;;;;4920387;29;20055;-76
2023/04/12 15:56:53;;;;;;;20.48;2.97;;;16.50;67.10;;;;;;4922110;29;20048;-76
2023/04/12 15:59:19;;;;;;;24.35;3.17;;;16.50;67.30;;;;;;4921143;29;20040;-79
2023/04/12 16:01:47;;;;;;;21.00;3.72;;;16.50;67.40;;;;;;4922332;29;20188;-76
2023/04/12 16:04:15;;;;;;;30.75;3.15;;;16.50;67.80;;;;;;4921525;29;20364;-75
2023/04/12 16:06:41;;;;;;;20.80;3.00;;;16.50;67.60;;;;;;4922034;29;20400;-76
2023/04/12 16:09:07;;;;;;;31.40;3.83;;;16.50;66.80;;;;;;4921338;29;20059;-77
2023/04/12 16:11:34;;;;;;;26.95;4.22;;;16.50;65.70;;;;;;4922479;29;20422;-77
2023/04/12 16:14:00;;;;;;;19.05;2.83;;;16.50;65.10;;;;;;4937795;29;20059;-77
2023/04/12 16:16:25;;;;;;;24.45;3.33;;;16.50;64.20;;;;;;4930527;29;20052;-75
2023/04/12 16:18:52;;;;;;;19.15;3.25;;;16.50;64.10;;;;;;4921676;29;20044;-77
2023/04/12 18:49:52;;;;;;;7.05;1.20;;;15.70;59.20;;;;;;5726896;23;20059;-73
2023/04/12 18:52:18;;;;;;;4.50;1.10;;;15.70;59.00;;;;;;4932124;29;20044;-69
2023/04/12 18:54:44;;;;;;;8.93;1.73;;;15.70;59.00;;;;;;4931683;29;20031;-72
2023/04/12 18:57:10;;;;;;;7.10;1.77;;;15.70;59.20;;;;;;4935826;29;20466;-70
2023/04/12 18:59:36;;;;;;;7.07;1.30;;;15.70;59.90;;;;;;4938453;29;20118;-70
2023/04/12 19:02:02;;;;;;;6.13;1.50;;;15.70;59.30;;;;;;4938538;29;20047;-70
2023/04/12 19:04:27;;;;;;;4.55;1.40;;;15.70;59.50;;;;;;4938123;29;20395;-71
2023/04/12 19:06:54;;;;;;;6.22;1.27;;;15.70;59.70;;;;;;4937834;29;20047;-71
2023/04/12 19:09:20;;;;;;;5.65;1.50;;;15.70;60.00;;;;;;4937758;29;20482;-69
2023/04/12 19:11:46;;;;;;;5.50;1.25;;;15.70;60.20;;;;;;4938253;29;20051;-72
2023/04/12 19:14:12;;;;;;;5.55;1.35;;;15.70;60.60;;;;;;4938063;29;20532;-71
2023/04/12 19:16:38;;;;;;;7.03;1.67;;;15.70;60.70;;;;;;4938100;29;20039;-73
2023/04/12 19:19:04;;;;;;;8.50;1.48;;;15.70;60.80;;;;;;4937947;29;20332;-72
2023/04/12 19:21:33;;;;;;;7.63;1.52;;;15.80;61.30;;;;;;4938081;29;20059;-71
2023/04/12 19:23:59;;;;;;;6.32;1.20;;;15.70;61.80;;;;;;4937337;29;20051;-70
2023/04/12 19:26:26;;;;;;;13.93;1.77;;;15.70;61.90;;;;;;4937375;29;20054;-70
2023/04/12 19:28:54;;;;;;;6.18;1.52;;;15.80;62.30;;;;;;4937976;29;20074;-70
2023/04/12 19:31:20;;;;;;;9.60;1.67;;;15.80;62.00;;;;;;4904985;29;20047;-71
2023/04/12 19:33:45;;;;;;;5.72;1.85;;;15.80;62.20;;;;;;4937851;29;20073;-71
2023/04/12 19:36:12;;;;;;;6.95;1.60;;;15.80;62.00;;;;;;4937683;29;20062;-76
2023/04/12 19:38:40;;;;;;;7.95;2.17;;;15.80;61.80;;;;;;4937615;29;20044;-75
2023/04/12 19:41:06;;;;;;;10.60;2.45;;;15.70;60.50;;;;;;4937885;29;20410;-75
2023/04/12 19:43:31;;;;;;;18.63;3.17;;;15.70;59.00;;;;;;4920890;29;20055;-76
2023/04/12 19:45:57;;;;;;;11.48;3.08;;;15.60;57.80;;;;;;4936603;29;20362;-75
2023/04/12 19:48:23;;;;;;;12.75;2.90;;;15.60;56.60;;;;;;4937244;29;20050;-76
2023/04/12 19:50:49;;;;;;;9.82;2.70;;;15.50;56.00;;;;;;4946147;29;20058;-75
2023/04/12 19:53:20;;;;;;;9.85;2.50;;;15.50;55.50;;;;;;4956638;29;20047;-75
2023/04/12 19:55:46;;;;;;;10.50;2.70;;;15.40;55.10;;;;;;4957362;29;20055;-75
2023/04/12 19:58:12;;;;;;;9.70;3.05;;;15.40;54.50;;;;;;4956876;29;20422;-75
2023/04/12 20:00:40;;;;;;;9.48;3.22;;;15.30;54.40;;;;;;4956772;29;20450;-74
2023/04/12 20:03:06;;;;;;;10.30;3.90;;;15.30;54.30;;;;;;4953525;29;20097;-75
2023/04/12 20:05:32;;;;;;;8.13;3.33;;;15.20;53.90;;;;;;4944953;29;20114;-75
2023/04/12 20:07:59;;;;;;;7.03;2.58;;;15.20;53.90;;;;;;4949720;29;20043;-76
2023/04/12 20:10:25;;;;;;;8.98;2.72;;;15.10;53.90;;;;;;4956986;29;20043;-74
2023/04/12 20:12:50;;;;;;;12.85;2.85;;;15.10;53.70;;;;;;4955749;29;20477;-75
2023/04/12 20:15:17;;;;;;;10.65;2.70;;;15.00;53.60;;;;;;4956448;29;20186;-74
2023/04/12 20:17:44;;;;;;;10.00;2.58;;;15.00;53.60;;;;;;4956400;29;20122;-75
2023/04/12 20:20:12;;;;;;;7.10;2.30;;;14.90;53.50;;;;;;4939555;29;20466;-75
2023/04/12 20:22:40;;;;;;;12.02;2.60;;;14.80;53.40;;;;;;4956834;29;20467;-76
2023/04/12 20:25:09;;;;;;;9.73;3.00;;;14.80;53.30;;;;;;4956354;29;20058;-75
2023/04/12 20:27:35;;;;;;;6.60;2.03;;;14.70;53.10;;;;;;4956365;29;20549;-76
